| time (UTC) | temp F | wind direction | speed MPH | gust MPH | rain 1hr in | rain 24hr in | rain mn in | humidity % | barometer mb |
| 20260906120050 | 71 | 0 | 0.0 | 0.0 | 0.00 | 1.17 | 0.01 | 98 | 1013.4 |
| 20260906114550 | 71 | 0 | 0.0 | 0.0 | 0.00 | 1.17 | 0.01 | 98 | 1013.3 |
| 20260906113049 | 71 | 0 | 0.0 | 0.0 | 0.00 | 1.17 | 0.01 | 98 | 1013.5 |
| 20260906111548 | 71 | 0 | 0.0 | 0.0 | 0.00 | 1.17 | 0.01 | 98 | 1013.3 |
| 20260906110045 | 71 | 0 | 0.0 | 0.0 | 0.00 | 1.17 | 0.01 | 98 | 1013.3 |
| 20260906104605 | 71 | 0 | 0.0 | 0.0 | 0.00 | 1.17 | 0.01 | 98 | 1013.3 |
| 20260906103047 | 71 | 0 | 0.0 | 0.0 | 0.00 | 1.17 | 0.01 | 98 | 1013.3 |
| 20260906101548 | 71 | 0 | 0.0 | 0.0 | 0.00 | 1.17 | 0.01 | 98 | 1013.1 |
| 20260906100046 | 71 | 0 | 0.0 | 0.0 | 0.00 | 1.17 | 0.01 | 98 | 1013.1 |
| 20260906094622 | 71 | 0 | 0.0 | 0.0 | 0.00 | 1.17 | 0.01 | 98 | 1013.0 |
| 20260906093101 | 71 | 0 | 0.0 | 0.0 | 0.00 | 1.17 | 0.01 | 98 | 1013.1 |
| 20260906091547 | 71 | 0 | 0.0 | 0.0 | 0.00 | 1.17 | 0.01 | 98 | 1013.1 |
| 20260906090045 | 71 | 0 | 0.0 | 0.0 | 0.00 | 1.17 | 0.01 | 98 | 1012.9 |
| 20260906084550 | 71 | 0 | 0.0 | 0.0 | 0.00 | 1.17 | 0.01 | 98 | 1012.9 |
| 20260906083048 | 71 | 0 | 0.0 | 0.0 | 0.00 | 1.17 | 0.01 | 98 | 1012.7 |
| 20260906081554 | 71 | 0 | 0.0 | 0.0 | 0.00 | 1.17 | 0.01 | 98 | 1012.6 |
| 20260906080052 | 71 | 0 | 0.0 | 0.0 | 0.00 | 1.17 | 0.01 | 98 | 1012.7 |
| 20260906074543 | 71 | 0 | 0.0 | 0.0 | 0.00 | 1.17 | 0.01 | 98 | 1012.8 |
| 20260906073050 | 71 | 0 | 0.0 | 0.0 | 0.00 | 1.17 | 0.01 | 98 | 1012.9 |
| 20260906071548 | 71 | 0 | 0.0 | 0.0 | 0.00 | 1.17 | 0.01 | 98 | 1013.1 |
| 20260906070049 | 72 | 0 | 0.0 | 0.0 | 0.00 | 1.17 | 0.01 | 98 | 1013.1 |
| 20260906064542 | 72 | 0 | 0.0 | 0.0 | 0.00 | 1.17 | 0.01 | 98 | 1013.2 |
| 20260906063050 | 72 | 0 | 0.0 | 0.0 | 0.00 | 1.17 | 0.01 | 98 | 1013.3 |
| 20260906061551 | 72 | 0 | 0.0 | 0.0 | 0.00 | 1.17 | 0.01 | 98 | 1013.4 |
| 20260906060048 | 72 | 0 | 0.0 | 0.0 | 0.00 | 1.17 | 0.01 | 97 | 1013.5 |
| 20260906054554 | 72 | 0 | 0.0 | 0.0 | 0.00 | 1.17 | 0.01 | 98 | 1013.4 |
| 20260906053048 | 72 | 0 | 0.0 | 0.0 | 0.00 | 1.17 | 0.01 | 98 | 1013.5 |
| 20260906051546 | 72 | 0 | 0.0 | 0.0 | 0.00 | 1.17 | 0.01 | 98 | 1013.5 |
| 20260906050050 | 72 | 0 | 0.0 | 0.0 | 0.01 | 1.17 | 0.01 | 98 | 1013.5 |
| 20260906044553 | 72 | 0 | 0.0 | 0.0 | 0.01 | 1.17 | 0.01 | 98 | 1013.6 |
| 20260906043049 | 72 | 0 | 0.0 | 0.0 | 0.01 | 1.17 | 0.01 | 97 | 1013.6 |
| 20260906041550 | 72 | 0 | 0.0 | 0.0 | 0.01 | 1.17 | 0.01 | 97 | 1013.5 |
| 20260906040100 | 72 | 0 | 0.0 | 0.0 | 0.00 | 1.16 | 0.00 | 97 | 1013.4 |
| 20260906034601 | 72 | 0 | 0.0 | 0.0 | 0.00 | 1.16 | 1.16 | 97 | 1013.4 |
| 20260906033048 | 72 | 0 | 0.0 | 0.0 | 0.00 | 1.16 | 1.16 | 97 | 1013.5 |
| 20260906031550 | 72 | 0 | 0.0 | 0.0 | 0.00 | 1.16 | 1.16 | 97 | 1013.7 |
| 20260906030046 | 72 | 0 | 0.0 | 0.0 | 0.00 | 1.16 | 1.16 | 97 | 1014.1 |
| 20260906024550 | 72 | 0 | 0.0 | 0.0 | 0.00 | 1.16 | 1.16 | 97 | 1014.0 |
| 20260906023051 | 72 | 0 | 0.0 | 0.0 | 0.00 | 1.16 | 1.16 | 97 | 1014.0 |
| 20260906021600 | 72 | 0 | 0.0 | 0.0 | 0.00 | 1.16 | 1.16 | 97 | 1014.0 |
| 20260906020058 | 72 | 0 | 0.0 | 0.0 | 0.00 | 1.16 | 1.16 | 97 | 1014.2 |
| 20260906014556 | 72 | 0 | 0.0 | 0.0 | 0.00 | 1.16 | 1.16 | 97 | 1013.9 |
| 20260906013048 | 72 | 0 | 0.0 | 0.0 | 0.00 | 1.16 | 1.16 | 96 | 1013.9 |
| 20260906011558 | 72 | 0 | 0.0 | 2.0 | 0.00 | 1.16 | 1.16 | 96 | 1014.2 |
| 20260906010105 | 72 | 0 | 0.0 | 0.0 | 0.06 | 1.16 | 1.16 | 95 | 1013.6 |
| 20260906004550 | 72 | 0 | 0.0 | 1.0 | 0.44 | 1.16 | 1.16 | 95 | 1013.2 |
| 20260906003054 | 72 | 0 | 0.0 | 1.0 | 1.14 | 1.16 | 1.16 | 94 | 1013.1 |
| 20260906001605 | 73 | 0 | 0.0 | 5.0 | 1.16 | 1.16 | 1.16 | 93 | 1012.5 |
| 20260906000051 | 74 | 0 | 0.0 | 5.0 | 1.10 | 1.10 | 1.10 | 90 | 1013.2 |
| 20260905234549 | 77 | 208 | 0.0 | 4.0 | 0.72 | 0.72 | 0.72 | 85 | 1014.4 |
| 20260905233108 | 86 | 311 | 1.0 | 3.0 | 0.02 | 0.02 | 0.02 | 70 | 1014.0 |
| 20260905231542 | 88 | 0 | 0.0 | 1.0 | 0.00 | 0.00 | 0.00 | 71 | 1011.8 |
| 20260905230053 | 88 | 0 | 0.0 | 3.0 | 0.00 | 0.00 | 0.00 | 70 | 1011.8 |
| 20260905224556 | 89 | 0 | 0.0 | 1.0 | 0.00 | 0.00 | 0.00 | 70 | 1011.8 |
| 20260905223046 | 90 | 0 | 0.0 | 2.0 | 0.00 | 0.00 | 0.00 | 69 | 1011.8 |
| 20260905221550 | 91 | 71 | 0.0 | 4.0 | 0.00 | 0.00 | 0.00 | 67 | 1011.6 |
| 20260905220053 | 92 | 109 | 0.0 | 3.0 | 0.00 | 0.00 | 0.00 | 64 | 1011.4 |
| 20260905214545 | 93 | 0 | 0.0 | 3.0 | 0.00 | 0.00 | 0.00 | 61 | 1011.2 |
| 20260905213100 | 94 | 0 | 0.0 | 3.0 | 0.00 | 0.00 | 0.00 | 57 | 1011.3 |
| 20260905211549 | 94 | 0 | 0.0 | 2.0 | 0.00 | 0.00 | 0.00 | 51 | 1011.2 |
| 20260905210108 | 94 | 0 | 0.0 | 2.0 | 0.00 | 0.00 | 0.00 | 53 | 1011.3 |
| 20260905204542 | 94 | 274 | 0.0 | 1.0 | 0.00 | 0.00 | 0.00 | 53 | 1011.5 |
| 20260905203051 | 94 | 346 | 0.0 | 2.0 | 0.00 | 0.00 | 0.00 | 53 | 1011.8 |
| 20260905201555 | 94 | 0 | 0.0 | 1.0 | 0.00 | 0.00 | 0.00 | 52 | 1011.9 |
| 20260905200057 | 95 | 70 | 0.0 | 2.0 | 0.00 | 0.00 | 0.00 | 52 | 1012.3 |
| 20260905194551 | 94 | 0 | 0.0 | 2.0 | 0.00 | 0.00 | 0.00 | 52 | 1012.5 |
| 20260905193048 | 94 | 0 | 0.0 | 3.0 | 0.00 | 0.00 | 0.00 | 53 | 1012.7 |
| 20260905191546 | 95 | 0 | 0.0 | 2.0 | 0.00 | 0.00 | 0.00 | 52 | 1012.8 |
| 20260905190053 | 96 | 0 | 0.0 | 2.0 | 0.00 | 0.00 | 0.00 | 50 | 1012.8 |
| 20260905184609 | 96 | 109 | 0.0 | 3.0 | 0.00 | 0.00 | 0.00 | 49 | 1012.9 |
| 20260905183050 | 96 | 119 | 0.0 | 2.0 | 0.00 | 0.00 | 0.00 | 48 | 1013.3 |
| 20260905181556 | 95 | 0 | 0.0 | 3.0 | 0.00 | 0.00 | 0.00 | 53 | 1013.6 |
| 20260905174559 | 93 | 288 | 0.0 | 2.0 | 0.00 | 0.00 | 0.00 | 54 | 1013.7 |
| 20260905173046 | 94 | 0 | 0.0 | 2.0 | 0.00 | 0.00 | 0.00 | 56 | 1014.1 |
| 20260905171558 | 94 | 99 | 0.0 | 2.0 | 0.00 | 0.00 | 0.00 | 55 | 1014.1 |
| 20260905170043 | 94 | 0 | 0.0 | 2.0 | 0.00 | 0.00 | 0.00 | 57 | 1014.3 |
| 20260905164551 | 95 | 0 | 0.0 | 3.0 | 0.00 | 0.00 | 0.00 | 54 | 1014.5 |
| 20260905163048 | 95 | 0 | 0.0 | 2.0 | 0.00 | 0.00 | 0.00 | 55 | 1014.7 |
| 20260905161601 | 94 | 0 | 0.0 | 3.0 | 0.00 | 0.00 | 0.00 | 56 | 1015.0 |
| 20260905160054 | 93 | 0 | 0.0 | 2.0 | 0.00 | 0.00 | 0.00 | 56 | 1015.0 |
| 20260905154555 | 93 | 273 | 0.0 | 2.0 | 0.00 | 0.00 | 0.00 | 56 | 1015.1 |
| 20260905153048 | 93 | 159 | 0.0 | 2.0 | 0.00 | 0.00 | 0.00 | 61 | 1015.2 |
| 20260905151556 | 91 | 0 | 0.0 | 1.0 | 0.00 | 0.00 | 0.00 | 62 | 1015.2 |
| 20260905150050 | 91 | 0 | 0.0 | 1.0 | 0.00 | 0.00 | 0.00 | 63 | 1015.4 |
| 20260905144553 | 90 | 0 | 0.0 | 0.0 | 0.00 | 0.00 | 0.00 | 67 | 1015.5 |
| 20260905143047 | 88 | 0 | 0.0 | 0.0 | 0.00 | 0.00 | 0.00 | 70 | 1015.5 |
| 20260905141555 | 87 | 0 | 0.0 | 0.0 | 0.00 | 0.00 | 0.00 | 73 | 1015.6 |
| 20260905140054 | 85 | 0 | 0.0 | 0.0 | 0.00 | 0.00 | 0.00 | 75 | 1015.8 |
| 20260905134552 | 83 | 0 | 0.0 | 0.0 | 0.00 | 0.00 | 0.00 | 78 | 1015.7 |
| 20260905133047 | 80 | 0 | 0.0 | 1.0 | 0.00 | 0.00 | 0.00 | 85 | 1015.8 |
| 20260905131542 | 77 | 0 | 0.0 | 0.0 | 0.00 | 0.00 | 0.00 | 92 | 1015.9 |
| 20260905130046 | 74 | 0 | 0.0 | 0.0 | 0.00 | 0.00 | 0.00 | 96 | 1015.9 |
| 20260905124550 | 73 | 0 | 0.0 | 0.0 | 0.00 | 0.00 | 0.00 | 96 | 1015.9 |
| 20260905123051 | 73 | 0 | 0.0 | 0.0 | 0.00 | 0.00 | 0.00 | 96 | 1016.0 |
| 20260905121545 | 72 | 0 | 0.0 | 0.0 | 0.00 | 0.00 | 0.00 | 95 | 1015.9 |